sensor_id;sensor_type;location;lat;lon;timestamp;P1;durP1;ratioP1;P2;durP2;ratioP2
63699;SDS011;49845;47.130;142.766;2023-03-21T00:01:37;42.97;;;17.88;;
63699;SDS011;49845;47.130;142.766;2023-03-21T00:04:07;40.42;;;18.15;;
63699;SDS011;49845;47.130;142.766;2023-03-21T00:06:38;42.65;;;17.17;;
63699;SDS011;49845;47.130;142.766;2023-03-21T00:09:10;41.25;;;17.52;;
63699;SDS011;49845;47.130;142.766;2023-03-21T00:11:41;38.60;;;17.75;;
63699;SDS011;49845;47.130;142.766;2023-03-21T00:14:11;42.70;;;18.65;;
63699;SDS011;49845;47.130;142.766;2023-03-21T00:16:45;48.35;;;18.70;;
63699;SDS011;49845;47.130;142.766;2023-03-21T00:19:19;37.97;;;16.80;;
63699;SDS011;49845;47.130;142.766;2023-03-21T00:21:52;42.05;;;17.20;;
63699;SDS011;49845;47.130;142.766;2023-03-21T00:24:36;43.15;;;17.15;;
63699;SDS011;49845;47.130;142.766;2023-03-21T00:27:07;41.90;;;16.45;;
63699;SDS011;49845;47.130;142.766;2023-03-21T00:30:05;44.03;;;17.27;;
63699;SDS011;49845;47.130;142.766;2023-03-21T00:32:36;44.33;;;17.73;;
63699;SDS011;49845;47.130;142.766;2023-03-21T00:35:21;43.10;;;17.77;;
63699;SDS011;49845;47.130;142.766;2023-03-21T00:38:12;53.00;;;17.77;;
63699;SDS011;49845;47.130;142.766;2023-03-21T00:40:45;47.15;;;18.90;;
63699;SDS011;49845;47.130;142.766;2023-03-21T00:43:18;38.63;;;17.38;;
63699;SDS011;49845;47.130;142.766;2023-03-21T00:45:50;45.53;;;18.58;;
63699;SDS011;49845;47.130;142.766;2023-03-21T00:48:20;46.50;;;18.85;;
63699;SDS011;49845;47.130;142.766;2023-03-21T00:50:52;46.55;;;18.17;;
63699;SDS011;49845;47.130;142.766;2023-03-21T00:53:26;37.97;;;17.20;;
63699;SDS011;49845;47.130;142.766;2023-03-21T00:55:59;43.65;;;17.52;;
63699;SDS011;49845;47.130;142.766;2023-03-21T00:58:30;45.15;;;20.02;;
63699;SDS011;49845;47.130;142.766;2023-03-21T01:01:00;44.90;;;19.42;;
63699;SDS011;49845;47.130;142.766;2023-03-21T01:03:32;51.22;;;20.27;;
63699;SDS011;49845;47.130;142.766;2023-03-21T01:06:09;49.25;;;20.02;;
63699;SDS011;49845;47.130;142.766;2023-03-21T01:08:40;46.83;;;18.55;;
63699;SDS011;49845;47.130;142.766;2023-03-21T01:11:21;40.55;;;18.45;;
63699;SDS011;49845;47.130;142.766;2023-03-21T01:13:53;43.83;;;18.25;;
63699;SDS011;49845;47.130;142.766;2023-03-21T01:16:44;49.30;;;18.15;;
63699;SDS011;49845;47.130;142.766;2023-03-21T01:19:15;41.83;;;18.38;;
63699;SDS011;49845;47.130;142.766;2023-03-21T01:21:56;46.47;;;20.42;;
63699;SDS011;49845;47.130;142.766;2023-03-21T01:24:27;40.72;;;19.02;;
63699;SDS011;49845;47.130;142.766;2023-03-21T01:27:02;56.67;;;21.13;;
63699;SDS011;49845;47.130;142.766;2023-03-21T01:29:33;45.63;;;19.52;;
63699;SDS011;49845;47.130;142.766;2023-03-21T01:32:03;42.58;;;18.45;;
63699;SDS011;49845;47.130;142.766;2023-03-21T01:34:34;45.85;;;18.20;;
63699;SDS011;49845;47.130;142.766;2023-03-21T01:37:04;45.30;;;18.65;;
63699;SDS011;49845;47.130;142.766;2023-03-21T01:39:35;44.85;;;19.17;;
63699;SDS011;49845;47.130;142.766;2023-03-21T01:42:08;44.88;;;18.35;;
63699;SDS011;49845;47.130;142.766;2023-03-21T01:44:51;48.05;;;19.13;;
63699;SDS011;49845;47.130;142.766;2023-03-21T01:47:24;52.75;;;20.70;;
63699;SDS011;49845;47.130;142.766;2023-03-21T01:49:55;48.33;;;18.40;;
63699;SDS011;49845;47.130;142.766;2023-03-21T01:52:28;47.88;;;19.63;;
63699;SDS011;49845;47.130;142.766;2023-03-21T01:55:05;45.33;;;19.45;;
63699;SDS011;49845;47.130;142.766;2023-03-21T01:57:41;49.13;;;19.17;;
63699;SDS011;49845;47.130;142.766;2023-03-21T02:00:30;45.78;;;18.15;;
63699;SDS011;49845;47.130;142.766;2023-03-21T02:03:04;36.05;;;18.17;;
63699;SDS011;49845;47.130;142.766;2023-03-21T02:05:51;41.63;;;17.45;;
63699;SDS011;49845;47.130;142.766;2023-03-21T02:08:24;39.47;;;17.27;;
63699;SDS011;49845;47.130;142.766;2023-03-21T02:11:05;42.45;;;17.42;;
63699;SDS011;49845;47.130;142.766;2023-03-21T02:13:38;38.70;;;16.77;;
63699;SDS011;49845;47.130;142.766;2023-03-21T02:16:11;40.88;;;16.90;;
63699;SDS011;49845;47.130;142.766;2023-03-21T02:18:48;39.60;;;16.33;;
63699;SDS011;49845;47.130;142.766;2023-03-21T02:24:47;37.05;;;16.60;;
63699;SDS011;49845;47.130;142.766;2023-03-21T02:27:48;38.38;;;16.33;;
63699;SDS011;49845;47.130;142.766;2023-03-21T02:30:32;45.33;;;17.83;;
63699;SDS011;49845;47.130;142.766;2023-03-21T02:36:18;35.33;;;15.73;;
63699;SDS011;49845;47.130;142.766;2023-03-21T02:39:09;44.58;;;17.50;;
63699;SDS011;49845;47.130;142.766;2023-03-21T02:41:46;40.60;;;16.05;;
63699;SDS011;49845;47.130;142.766;2023-03-21T02:44:20;32.25;;;14.90;;
63699;SDS011;49845;47.130;142.766;2023-03-21T02:46:56;39.35;;;14.85;;
63699;SDS011;49845;47.130;142.766;2023-03-21T02:49:33;39.28;;;15.60;;
63699;SDS011;49845;47.130;142.766;2023-03-21T02:52:10;41.35;;;16.38;;
63699;SDS011;49845;47.130;142.766;2023-03-21T02:55:03;33.40;;;14.27;;
63699;SDS011;49845;47.130;142.766;2023-03-21T02:57:40;35.10;;;15.32;;
63699;SDS011;49845;47.130;142.766;2023-03-21T03:00:15;39.97;;;15.75;;
63699;SDS011;49845;47.130;142.766;2023-03-21T03:02:48;33.83;;;14.82;;
63699;SDS011;49845;47.130;142.766;2023-03-21T03:05:35;43.38;;;18.00;;
63699;SDS011;49845;47.130;142.766;2023-03-21T03:08:17;40.42;;;15.23;;
63699;SDS011;49845;47.130;142.766;2023-03-21T03:11:20;38.65;;;15.52;;
63699;SDS011;49845;47.130;142.766;2023-03-21T03:13:58;34.75;;;14.98;;
63699;SDS011;49845;47.130;142.766;2023-03-21T03:17:06;29.77;;;13.52;;
63699;SDS011;49845;47.130;142.766;2023-03-21T03:19:49;33.40;;;14.95;;
63699;SDS011;49845;47.130;142.766;2023-03-21T03:22:43;32.55;;;13.77;;
63699;SDS011;49845;47.130;142.766;2023-03-21T03:28:10;30.92;;;14.70;;
63699;SDS011;49845;47.130;142.766;2023-03-21T03:30:44;43.60;;;14.55;;
63699;SDS011;49845;47.130;142.766;2023-03-21T03:33:33;35.58;;;13.90;;
63699;SDS011;49845;47.130;142.766;2023-03-21T03:36:08;36.65;;;14.00;;
63699;SDS011;49845;47.130;142.766;2023-03-21T03:38:57;34.20;;;14.52;;
63699;SDS011;49845;47.130;142.766;2023-03-21T03:41:30;36.58;;;14.43;;
63699;SDS011;49845;47.130;142.766;2023-03-21T03:44:28;38.25;;;14.85;;
63699;SDS011;49845;47.130;142.766;2023-03-21T03:47:00;34.78;;;14.65;;
63699;SDS011;49845;47.130;142.766;2023-03-21T03:49:35;35.95;;;16.65;;
63699;SDS011;49845;47.130;142.766;2023-03-21T03:52:11;35.45;;;15.13;;
63699;SDS011;49845;47.130;142.766;2023-03-21T03:54:47;38.53;;;15.50;;
63699;SDS011;49845;47.130;142.766;2023-03-21T03:57:19;37.03;;;15.40;;
63699;SDS011;49845;47.130;142.766;2023-03-21T03:59:52;34.67;;;13.48;;
63699;SDS011;49845;47.130;142.766;2023-03-21T04:02:22;38.67;;;14.85;;
63699;SDS011;49845;47.130;142.766;2023-03-21T04:04:53;37.83;;;14.25;;
63699;SDS011;49845;47.130;142.766;2023-03-21T04:07:24;38.35;;;14.73;;
63699;SDS011;49845;47.130;142.766;2023-03-21T04:09:55;43.83;;;14.65;;
63699;SDS011;49845;47.130;142.766;2023-03-21T04:12:26;32.08;;;13.02;;
63699;SDS011;49845;47.130;142.766;2023-03-21T04:14:58;29.83;;;13.85;;
63699;SDS011;49845;47.130;142.766;2023-03-21T04:20:07;37.17;;;12.93;;
63699;SDS011;49845;47.130;142.766;2023-03-21T04:22:49;36.58;;;19.80;;
63699;SDS011;49845;47.130;142.766;2023-03-21T04:25:20;37.97;;;13.80;;
63699;SDS011;49845;47.130;142.766;2023-03-21T04:28:00;36.75;;;14.60;;
63699;SDS011;49845;47.130;142.766;2023-03-21T04:30:32;36.20;;;14.02;;
63699;SDS011;49845;47.130;142.766;2023-03-21T04:33:04;39.72;;;14.43;;
63699;SDS011;49845;47.130;142.766;2023-03-21T04:35:34;34.03;;;13.00;;
63699;SDS011;49845;47.130;142.766;2023-03-21T04:38:05;39.33;;;13.82;;
63699;SDS011;49845;47.130;142.766;2023-03-21T04:40:35;31.45;;;12.55;;
63699;SDS011;49845;47.130;142.766;2023-03-21T04:43:06;37.38;;;13.55;;
63699;SDS011;49845;47.130;142.766;2023-03-21T04:45:38;34.25;;;13.07;;
63699;SDS011;49845;47.130;142.766;2023-03-21T04:48:09;31.50;;;12.38;;
63699;SDS011;49845;47.130;142.766;2023-03-21T04:50:41;29.25;;;12.93;;
63699;SDS011;49845;47.130;142.766;2023-03-21T04:53:12;31.10;;;12.55;;
63699;SDS011;49845;47.130;142.766;2023-03-21T04:55:42;32.00;;;11.88;;
63699;SDS011;49845;47.130;142.766;2023-03-21T04:58:15;30.55;;;12.65;;
63699;SDS011;49845;47.130;142.766;2023-03-21T05:00:48;26.58;;;11.70;;
63699;SDS011;49845;47.130;142.766;2023-03-21T05:03:19;30.45;;;12.00;;
63699;SDS011;49845;47.130;142.766;2023-03-21T05:05:50;31.45;;;11.80;;
63699;SDS011;49845;47.130;142.766;2023-03-21T05:08:20;28.48;;;12.23;;
63699;SDS011;49845;47.130;142.766;2023-03-21T05:10:51;25.35;;;11.85;;
63699;SDS011;49845;47.130;142.766;2023-03-21T05:13:22;27.08;;;11.90;;
63699;SDS011;49845;47.130;142.766;2023-03-21T05:15:54;28.25;;;11.65;;
63699;SDS011;49845;47.130;142.766;2023-03-21T05:18:24;28.05;;;11.75;;
63699;SDS011;49845;47.130;142.766;2023-03-21T05:20:57;26.65;;;11.13;;
63699;SDS011;49845;47.130;142.766;2023-03-21T05:23:27;26.85;;;11.05;;
63699;SDS011;49845;47.130;142.766;2023-03-21T05:25:58;31.98;;;11.68;;
63699;SDS011;49845;47.130;142.766;2023-03-21T05:28:29;21.33;;;11.15;;
63699;SDS011;49845;47.130;142.766;2023-03-21T05:31:04;30.33;;;11.73;;
63699;SDS011;49845;47.130;142.766;2023-03-21T05:33:36;24.55;;;11.13;;
63699;SDS011;49845;47.130;142.766;2023-03-21T05:36:06;29.73;;;10.65;;
63699;SDS011;49845;47.130;142.766;2023-03-21T05:38:38;30.05;;;10.93;;
63699;SDS011;49845;47.130;142.766;2023-03-21T05:41:12;24.02;;;11.65;;
63699;SDS011;49845;47.130;142.766;2023-03-21T05:43:45;26.10;;;11.20;;
63699;SDS011;49845;47.130;142.766;2023-03-21T05:46:17;26.58;;;11.23;;
63699;SDS011;49845;47.130;142.766;2023-03-21T05:48:48;25.35;;;10.98;;
63699;SDS011;49845;47.130;142.766;2023-03-21T05:51:18;24.20;;;10.27;;
63699;SDS011;49845;47.130;142.766;2023-03-21T05:53:49;22.08;;;9.30;;
63699;SDS011;49845;47.130;142.766;2023-03-21T05:56:20;26.25;;;9.95;;
63699;SDS011;49845;47.130;142.766;2023-03-21T05:58:50;24.25;;;9.50;;
63699;SDS011;49845;47.130;142.766;2023-03-21T06:01:22;21.02;;;9.80;;
63699;SDS011;49845;47.130;142.766;2023-03-21T06:03:53;19.08;;;9.43;;
63699;SDS011;49845;47.130;142.766;2023-03-21T06:06:23;20.80;;;9.88;;
63699;SDS011;49845;47.130;142.766;2023-03-21T06:08:54;22.88;;;10.00;;
63699;SDS011;49845;47.130;142.766;2023-03-21T06:11:25;25.05;;;9.93;;
63699;SDS011;49845;47.130;142.766;2023-03-21T06:13:57;21.67;;;9.57;;
63699;SDS011;49845;47.130;142.766;2023-03-21T06:16:29;22.67;;;9.38;;
63699;SDS011;49845;47.130;142.766;2023-03-21T06:19:00;25.45;;;9.75;;
63699;SDS011;49845;47.130;142.766;2023-03-21T06:21:30;20.45;;;9.30;;
63699;SDS011;49845;47.130;142.766;2023-03-21T06:24:01;21.77;;;9.30;;
63699;SDS011;49845;47.130;142.766;2023-03-21T06:26:31;20.70;;;9.70;;
63699;SDS011;49845;47.130;142.766;2023-03-21T06:29:02;16.15;;;8.60;;
63699;SDS011;49845;47.130;142.766;2023-03-21T06:31:35;16.55;;;8.80;;
63699;SDS011;49845;47.130;142.766;2023-03-21T06:34:05;17.23;;;8.57;;
63699;SDS011;49845;47.130;142.766;2023-03-21T06:36:37;18.65;;;8.20;;
63699;SDS011;49845;47.130;142.766;2023-03-21T06:39:07;19.10;;;8.40;;
63699;SDS011;49845;47.130;142.766;2023-03-21T06:41:38;18.73;;;8.30;;
63699;SDS011;49845;47.130;142.766;2023-03-21T06:44:08;16.40;;;8.10;;
63699;SDS011;49845;47.130;142.766;2023-03-21T06:46:40;16.42;;;8.20;;
63699;SDS011;49845;47.130;142.766;2023-03-21T06:49:11;17.77;;;8.38;;
63699;SDS011;49845;47.130;142.766;2023-03-21T06:51:42;19.13;;;8.43;;
63699;SDS011;49845;47.130;142.766;2023-03-21T06:54:12;18.70;;;8.80;;
63699;SDS011;49845;47.130;142.766;2023-03-21T06:56:44;20.00;;;8.02;;
63699;SDS011;49845;47.130;142.766;2023-03-21T06:59:15;18.95;;;7.75;;
63699;SDS011;49845;47.130;142.766;2023-03-21T07:01:47;16.05;;;8.10;;
63699;SDS011;49845;47.130;142.766;2023-03-21T07:04:18;15.73;;;7.80;;
63699;SDS011;49845;47.130;142.766;2023-03-21T07:06:48;16.25;;;7.72;;
63699;SDS011;49845;47.130;142.766;2023-03-21T07:09:19;13.05;;;7.32;;
63699;SDS011;49845;47.130;142.766;2023-03-21T07:11:51;18.20;;;8.05;;
63699;SDS011;49845;47.130;142.766;2023-03-21T07:14:22;19.88;;;8.18;;
63699;SDS011;49845;47.130;142.766;2023-03-21T07:16:54;18.58;;;8.43;;
63699;SDS011;49845;47.130;142.766;2023-03-21T07:19:25;15.82;;;7.68;;
63699;SDS011;49845;47.130;142.766;2023-03-21T07:21:55;14.93;;;7.72;;
63699;SDS011;49845;47.130;142.766;2023-03-21T07:24:26;17.27;;;8.65;;
63699;SDS011;49845;47.130;142.766;2023-03-21T07:26:57;22.70;;;10.27;;
63699;SDS011;49845;47.130;142.766;2023-03-21T07:29:27;19.23;;;8.45;;
63699;SDS011;49845;47.130;142.766;2023-03-21T07:32:00;17.85;;;7.93;;
63699;SDS011;49845;47.130;142.766;2023-03-21T07:34:30;15.68;;;8.40;;
63699;SDS011;49845;47.130;142.766;2023-03-21T07:37:01;16.10;;;8.05;;
63699;SDS011;49845;47.130;142.766;2023-03-21T07:39:33;19.25;;;9.77;;
63699;SDS011;49845;47.130;142.766;2023-03-21T07:42:04;17.13;;;7.88;;
63699;SDS011;49845;47.130;142.766;2023-03-21T07:44:40;15.20;;;7.90;;
63699;SDS011;49845;47.130;142.766;2023-03-21T07:47:12;15.90;;;8.30;;
63699;SDS011;49845;47.130;142.766;2023-03-21T07:49:43;20.40;;;9.25;;
63699;SDS011;49845;47.130;142.766;2023-03-21T07:52:13;20.63;;;9.35;;
63699;SDS011;49845;47.130;142.766;2023-03-21T07:54:44;21.13;;;10.48;;
63699;SDS011;49845;47.130;142.766;2023-03-21T07:57:16;21.00;;;10.10;;
63699;SDS011;49845;47.130;142.766;2023-03-21T07:59:47;26.05;;;11.10;;
63699;SDS011;49845;47.130;142.766;2023-03-21T08:02:19;21.63;;;10.48;;
63699;SDS011;49845;47.130;142.766;2023-03-21T08:04:54;18.35;;;10.55;;
63699;SDS011;49845;47.130;142.766;2023-03-21T08:07:33;19.00;;;11.57;;
63699;SDS011;49845;47.130;142.766;2023-03-21T08:10:10;23.48;;;12.10;;
63699;SDS011;49845;47.130;142.766;2023-03-21T08:13:09;26.67;;;14.25;;
63699;SDS011;49845;47.130;142.766;2023-03-21T08:15:43;25.08;;;13.40;;
63699;SDS011;49845;47.130;142.766;2023-03-21T08:18:15;23.52;;;13.18;;
63699;SDS011;49845;47.130;142.766;2023-03-21T08:20:51;24.27;;;13.55;;
63699;SDS011;49845;47.130;142.766;2023-03-21T08:23:23;27.67;;;13.70;;
63699;SDS011;49845;47.130;142.766;2023-03-21T08:25:54;30.55;;;13.85;;
63699;SDS011;49845;47.130;142.766;2023-03-21T08:28:25;28.30;;;13.43;;
63699;SDS011;49845;47.130;142.766;2023-03-21T08:30:58;27.35;;;13.85;;
63699;SDS011;49845;47.130;142.766;2023-03-21T08:33:49;25.65;;;13.98;;
63699;SDS011;49845;47.130;142.766;2023-03-21T08:36:40;28.45;;;13.68;;
63699;SDS011;49845;47.130;142.766;2023-03-21T08:39:12;32.75;;;14.68;;
63699;SDS011;49845;47.130;142.766;2023-03-21T08:41:48;22.90;;;13.45;;
63699;SDS011;49845;47.130;142.766;2023-03-21T08:44:19;29.75;;;14.25;;
63699;SDS011;49845;47.130;142.766;2023-03-21T08:46:52;22.40;;;14.65;;
63699;SDS011;49845;47.130;142.766;2023-03-21T08:49:27;27.17;;;14.23;;
63699;SDS011;49845;47.130;142.766;2023-03-21T08:52:01;24.35;;;14.75;;
63699;SDS011;49845;47.130;142.766;2023-03-21T08:54:35;30.92;;;15.13;;
63699;SDS011;49845;47.130;142.766;2023-03-21T08:57:08;29.88;;;15.32;;
63699;SDS011;49845;47.130;142.766;2023-03-21T08:59:39;31.55;;;15.77;;
63699;SDS011;49845;47.130;142.766;2023-03-21T09:02:10;27.20;;;15.73;;
63699;SDS011;49845;47.130;142.766;2023-03-21T09:04:45;25.52;;;15.18;;
63699;SDS011;49845;47.130;142.766;2023-03-21T09:07:21;31.48;;;14.93;;
63699;SDS011;49845;47.130;142.766;2023-03-21T09:09:53;32.65;;;15.57;;
63699;SDS011;49845;47.130;142.766;2023-03-21T09:12:46;31.63;;;16.48;;
63699;SDS011;49845;47.130;142.766;2023-03-21T09:15:18;23.55;;;13.90;;
63699;SDS011;49845;47.130;142.766;2023-03-21T09:17:51;31.38;;;15.95;;
63699;SDS011;49845;47.130;142.766;2023-03-21T09:20:28;29.52;;;14.68;;
63699;SDS011;49845;47.130;142.766;2023-03-21T09:23:02;28.38;;;14.57;;
63699;SDS011;49845;47.130;142.766;2023-03-21T09:25:35;24.90;;;14.57;;
63699;SDS011;49845;47.130;142.766;2023-03-21T09:28:07;24.75;;;14.40;;
63699;SDS011;49845;47.130;142.766;2023-03-21T09:30:40;30.25;;;14.45;;
63699;SDS011;49845;47.130;142.766;2023-03-21T09:33:12;25.40;;;13.23;;
63699;SDS011;49845;47.130;142.766;2023-03-21T09:35:49;35.72;;;15.23;;
63699;SDS011;49845;47.130;142.766;2023-03-21T09:38:21;27.52;;;13.93;;
63699;SDS011;49845;47.130;142.766;2023-03-21T09:41:01;28.38;;;13.73;;
63699;SDS011;49845;47.130;142.766;2023-03-21T09:43:50;28.85;;;13.50;;
63699;SDS011;49845;47.130;142.766;2023-03-21T09:46:32;23.80;;;12.43;;
63699;SDS011;49845;47.130;142.766;2023-03-21T09:49:15;23.05;;;12.95;;
63699;SDS011;49845;47.130;142.766;2023-03-21T09:51:55;26.38;;;13.95;;
63699;SDS011;49845;47.130;142.766;2023-03-21T09:54:31;26.08;;;15.60;;
63699;SDS011;49845;47.130;142.766;2023-03-21T09:57:10;29.45;;;14.35;;
63699;SDS011;49845;47.130;142.766;2023-03-21T09:59:51;29.48;;;14.80;;
63699;SDS011;49845;47.130;142.766;2023-03-21T10:02:32;26.05;;;14.00;;
63699;SDS011;49845;47.130;142.766;2023-03-21T10:05:12;25.38;;;12.75;;
63699;SDS011;49845;47.130;142.766;2023-03-21T10:07:49;24.38;;;13.05;;
63699;SDS011;49845;47.130;142.766;2023-03-21T10:10:27;23.85;;;13.38;;
63699;SDS011;49845;47.130;142.766;2023-03-21T10:13:01;26.40;;;13.05;;
63699;SDS011;49845;47.130;142.766;2023-03-21T10:15:33;25.80;;;13.48;;
63699;SDS011;49845;47.130;142.766;2023-03-21T10:18:06;25.83;;;13.45;;
63699;SDS011;49845;47.130;142.766;2023-03-21T10:20:43;26.48;;;14.50;;
63699;SDS011;49845;47.130;142.766;2023-03-21T10:23:16;26.88;;;13.25;;
63699;SDS011;49845;47.130;142.766;2023-03-21T10:25:51;26.73;;;13.73;;
63699;SDS011;49845;47.130;142.766;2023-03-21T10:28:27;28.90;;;13.75;;
63699;SDS011;49845;47.130;142.766;2023-03-21T10:31:18;23.00;;;13.85;;
63699;SDS011;49845;47.130;142.766;2023-03-21T10:33:55;26.38;;;12.77;;
63699;SDS011;49845;47.130;142.766;2023-03-21T10:36:32;23.15;;;13.05;;
63699;SDS011;49845;47.130;142.766;2023-03-21T10:39:11;24.13;;;13.38;;
63699;SDS011;49845;47.130;142.766;2023-03-21T10:41:53;22.60;;;12.60;;
63699;SDS011;49845;47.130;142.766;2023-03-21T10:44:28;24.35;;;12.50;;
63699;SDS011;49845;47.130;142.766;2023-03-21T10:47:02;24.88;;;13.20;;
63699;SDS011;49845;47.130;142.766;2023-03-21T10:49:35;28.38;;;12.52;;
63699;SDS011;49845;47.130;142.766;2023-03-21T10:52:29;25.58;;;13.98;;
63699;SDS011;49845;47.130;142.766;2023-03-21T10:55:14;30.67;;;14.70;;
63699;SDS011;49845;47.130;142.766;2023-03-21T10:57:51;27.30;;;13.10;;
63699;SDS011;49845;47.130;142.766;2023-03-21T11:00:26;26.33;;;13.88;;
63699;SDS011;49845;47.130;142.766;2023-03-21T11:02:58;25.75;;;14.18;;
63699;SDS011;49845;47.130;142.766;2023-03-21T11:05:33;29.77;;;14.65;;
63699;SDS011;49845;47.130;142.766;2023-03-21T11:08:06;24.00;;;13.05;;
63699;SDS011;49845;47.130;142.766;2023-03-21T11:10:49;23.80;;;12.68;;
63699;SDS011;49845;47.130;142.766;2023-03-21T11:13:23;28.17;;;13.25;;
63699;SDS011;49845;47.130;142.766;2023-03-21T11:15:55;34.33;;;12.85;;
63699;SDS011;49845;47.130;142.766;2023-03-21T11:18:29;32.42;;;13.10;;
63699;SDS011;49845;47.130;142.766;2023-03-21T11:21:04;26.38;;;12.63;;
63699;SDS011;49845;47.130;142.766;2023-03-21T11:23:40;31.35;;;12.75;;
63699;SDS011;49845;47.130;142.766;2023-03-21T11:29:34;26.05;;;12.30;;
63699;SDS011;49845;47.130;142.766;2023-03-21T11:32:23;27.83;;;12.60;;
63699;SDS011;49845;47.130;142.766;2023-03-21T11:34:59;34.72;;;12.88;;
63699;SDS011;49845;47.130;142.766;2023-03-21T11:37:40;23.55;;;11.65;;
63699;SDS011;49845;47.130;142.766;2023-03-21T11:40:20;24.83;;;12.95;;
63699;SDS011;49845;47.130;142.766;2023-03-21T11:42:58;19.55;;;11.35;;
63699;SDS011;49845;47.130;142.766;2023-03-21T11:45:54;27.05;;;11.40;;
63699;SDS011;49845;47.130;142.766;2023-03-21T11:48:37;23.90;;;11.00;;
63699;SDS011;49845;47.130;142.766;2023-03-21T11:51:18;22.38;;;10.48;;
63699;SDS011;49845;47.130;142.766;2023-03-21T11:53:59;20.60;;;10.57;;
63699;SDS011;49845;47.130;142.766;2023-03-21T11:56:42;22.88;;;10.07;;
63699;SDS011;49845;47.130;142.766;2023-03-21T11:59:22;19.40;;;9.68;;
63699;SDS011;49845;47.130;142.766;2023-03-21T12:02:11;23.90;;;10.45;;
63699;SDS011;49845;47.130;142.766;2023-03-21T12:04:56;19.65;;;10.57;;
63699;SDS011;49845;47.130;142.766;2023-03-21T12:07:41;23.58;;;11.65;;
63699;SDS011;49845;47.130;142.766;2023-03-21T12:10:25;20.15;;;11.02;;
63699;SDS011;49845;47.130;142.766;2023-03-21T12:13:09;22.00;;;11.00;;
63699;SDS011;49845;47.130;142.766;2023-03-21T12:15:52;21.83;;;11.32;;
63699;SDS011;49845;47.130;142.766;2023-03-21T12:18:45;20.38;;;9.65;;
63699;SDS011;49845;47.130;142.766;2023-03-21T12:21:37;22.35;;;9.93;;
63699;SDS011;49845;47.130;142.766;2023-03-21T12:24:19;20.85;;;9.15;;
63699;SDS011;49845;47.130;142.766;2023-03-21T12:26:55;24.55;;;10.23;;
63699;SDS011;49845;47.130;142.766;2023-03-21T12:29:36;19.90;;;9.85;;
63699;SDS011;49845;47.130;142.766;2023-03-21T12:32:19;22.63;;;9.45;;
63699;SDS011;49845;47.130;142.766;2023-03-21T12:35:15;21.77;;;10.15;;
63699;SDS011;49845;47.130;142.766;2023-03-21T12:37:58;18.45;;;9.95;;
63699;SDS011;49845;47.130;142.766;2023-03-21T12:40:50;38.85;;;18.13;;
63699;SDS011;49845;47.130;142.766;2023-03-21T12:43:40;32.45;;;16.05;;
63699;SDS011;49845;47.130;142.766;2023-03-21T12:46:15;47.08;;;22.98;;
63699;SDS011;49845;47.130;142.766;2023-03-21T12:51:54;84.00;;;42.03;;
63699;SDS011;49845;47.130;142.766;2023-03-21T12:54:31;103.10;;;54.90;;
63699;SDS011;49845;47.130;142.766;2023-03-21T12:57:11;47.17;;;24.15;;
63699;SDS011;49845;47.130;142.766;2023-03-21T12:59:48;77.18;;;43.47;;
63699;SDS011;49845;47.130;142.766;2023-03-21T13:02:25;47.53;;;28.30;;
63699;SDS011;49845;47.130;142.766;2023-03-21T13:05:04;55.50;;;32.53;;
63699;SDS011;49845;47.130;142.766;2023-03-21T13:07:46;53.70;;;30.25;;
63699;SDS011;49845;47.130;142.766;2023-03-21T13:10:23;53.65;;;31.42;;
63699;SDS011;49845;47.130;142.766;2023-03-21T13:12:56;42.38;;;24.48;;
63699;SDS011;49845;47.130;142.766;2023-03-21T13:15:43;45.58;;;25.33;;
63699;SDS011;49845;47.130;142.766;2023-03-21T13:18:34;51.33;;;24.98;;
63699;SDS011;49845;47.130;142.766;2023-03-21T13:21:17;47.55;;;26.92;;
63699;SDS011;49845;47.130;142.766;2023-03-21T13:24:00;43.72;;;21.70;;
63699;SDS011;49845;47.130;142.766;2023-03-21T13:26:46;39.53;;;21.92;;
63699;SDS011;49845;47.130;142.766;2023-03-21T13:29:31;44.83;;;20.88;;
63699;SDS011;49845;47.130;142.766;2023-03-21T13:32:14;36.28;;;17.70;;
63699;SDS011;49845;47.130;142.766;2023-03-21T13:34:54;35.15;;;17.60;;
63699;SDS011;49845;47.130;142.766;2023-03-21T13:37:29;37.80;;;17.42;;
63699;SDS011;49845;47.130;142.766;2023-03-21T13:40:02;34.55;;;17.40;;
63699;SDS011;49845;47.130;142.766;2023-03-21T13:42:42;33.60;;;16.23;;
63699;SDS011;49845;47.130;142.766;2023-03-21T13:45:26;34.92;;;17.00;;
63699;SDS011;49845;47.130;142.766;2023-03-21T13:47:59;32.65;;;16.75;;
63699;SDS011;49845;47.130;142.766;2023-03-21T13:50:35;37.72;;;16.70;;
63699;SDS011;49845;47.130;142.766;2023-03-21T13:53:31;31.70;;;17.92;;
63699;SDS011;49845;47.130;142.766;2023-03-21T13:56:08;40.00;;;17.67;;
63699;SDS011;49845;47.130;142.766;2023-03-21T13:58:51;35.40;;;17.98;;
63699;SDS011;49845;47.130;142.766;2023-03-21T14:01:34;34.55;;;16.38;;
63699;SDS011;49845;47.130;142.766;2023-03-21T14:04:11;31.02;;;17.65;;
63699;SDS011;49845;47.130;142.766;2023-03-21T14:06:45;44.85;;;21.13;;
63699;SDS011;49845;47.130;142.766;2023-03-21T14:09:23;45.00;;;19.95;;
63699;SDS011;49845;47.130;142.766;2023-03-21T14:11:57;40.30;;;20.80;;
63699;SDS011;49845;47.130;142.766;2023-03-21T14:14:36;32.35;;;17.83;;
63699;SDS011;49845;47.130;142.766;2023-03-21T14:17:12;40.67;;;18.52;;
63699;SDS011;49845;47.130;142.766;2023-03-21T14:19:44;31.25;;;15.68;;
63699;SDS011;49845;47.130;142.766;2023-03-21T14:22:14;31.77;;;15.40;;
63699;SDS011;49845;47.130;142.766;2023-03-21T14:24:49;32.40;;;14.68;;
63699;SDS011;49845;47.130;142.766;2023-03-21T14:29:58;33.85;;;14.02;;
63699;SDS011;49845;47.130;142.766;2023-03-21T14:32:30;30.67;;;14.23;;
63699;SDS011;49845;47.130;142.766;2023-03-21T14:35:03;34.30;;;15.43;;
63699;SDS011;49845;47.130;142.766;2023-03-21T14:37:40;36.20;;;16.90;;
63699;SDS011;49845;47.130;142.766;2023-03-21T14:40:22;38.97;;;15.25;;
63699;SDS011;49845;47.130;142.766;2023-03-21T14:42:56;32.00;;;14.63;;
63699;SDS011;49845;47.130;142.766;2023-03-21T14:45:34;28.17;;;15.95;;
63699;SDS011;49845;47.130;142.766;2023-03-21T14:48:07;37.80;;;15.63;;
63699;SDS011;49845;47.130;142.766;2023-03-21T14:50:47;26.30;;;15.48;;
63699;SDS011;49845;47.130;142.766;2023-03-21T14:53:18;31.33;;;15.10;;
63699;SDS011;49845;47.130;142.766;2023-03-21T14:55:56;25.38;;;14.38;;
63699;SDS011;49845;47.130;142.766;2023-03-21T14:58:33;28.83;;;14.70;;
63699;SDS011;49845;47.130;142.766;2023-03-21T15:01:11;28.73;;;14.98;;
63699;SDS011;49845;47.130;142.766;2023-03-21T15:03:44;30.83;;;15.18;;
63699;SDS011;49845;47.130;142.766;2023-03-21T15:06:16;36.20;;;16.05;;
63699;SDS011;49845;47.130;142.766;2023-03-21T15:08:53;29.70;;;15.13;;
63699;SDS011;49845;47.130;142.766;2023-03-21T15:11:32;33.05;;;16.58;;